Blue Angels Classic - loft fly

Station: INVENTORY - T Race

Distance: 10 Miles

Release: 31-Jul-2020 07:25

Weather Release:    Arrival:

Wind at Release:     Wind at Arrival:

Temp at Release: °    Temp at Arrival: °

Lofts: 46

Birds: 160

Clocked: 145

Good Luck to Everyone!
Drops Pos Breeder Pigeon Name Color Sex Ent Arrival Speed To Win Elg Pd
1 Flying M Loft - AL 20107-AU20-MOBM BB H 1 08:01:49.50 477.936 00:00:00 Yes
2 Ledet-Gutrz - LA 20163-AU20-LEDT BB C 1 08:01:50.10 477.806 00:00:01 Yes
3 New Orleans Boys 2 - LA 20281-AU20-MET DCWF H 1 08:01:50.50 477.720 00:00:01 Yes
4 Nesneb Racing Loft - AL 20066-AU20-NESN BC C 1 08:01:51.10 477.590 00:00:02 Yes
4 Hoosierboy's Loft - FL 0137-AU20-HOOS BB H 1 08:01:51.10 477.590 00:00:02 Yes
6 Ruston Racers - LA 2002-AU20-NLA BC H 1 08:01:51.50 477.504 00:00:02 Yes
7 Hynes - LA 20463-AU20-MET BC H 1 08:01:51.60 477.482 00:00:02 Yes
8 Cam Loft - LA 9606-AU20-AA BB C 1 08:01:52.00 477.396 00:00:02 Yes
9 Pidg-Inn - AL 6488-AU20-FOYS JEANINE BBWF H 1 08:01:52.40 477.310 00:00:03 Yes
9 Roberts Family Loft - TX 0204-AU20-DOUB BB C 1 08:01:52.40 477.310 00:00:03 Yes
11 R & M Lofts - TX 9182-AU20-AA BC H 1 08:01:53.00 477.180 00:00:04 Yes
12 Radd - OK 4272-AU20-ARPU 1527/1962 K BLK H 1 08:01:53.40 477.094 00:00:04 Yes
12 Ron Talbot /Jimmy Fernandez - LA 3454-AU20-BAYO BC C 1 08:01:53.40 477.094 00:00:04 Yes
12 Two Cousins - LA 3628-AU20-BAYO BC C 1 08:01:53.40 477.094 00:00:04 Yes
15 Flying D Loft - TX 0505-AU20-FLYD Flyd 865 Flyd 625 BC C 1 08:01:54.10 476.943 00:00:05 Yes
15 Flying D Loft - TX 0503-AU20-FLYD Foys 5855 - Flyd 255 BC H 2 08:01:54.10 476.943 00:00:05 Yes
17 Radd - OK 4256-AU20-ARPU 1148/5150 BP BB H 2 08:01:54.50 476.857 00:00:05 Yes
18 R & M Lofts - TX 9141-AU20-AA BC H 2 08:01:54.90 476.771 00:00:05 Yes
19 Mike's Loft - MS 6780-AU20-SMRP SLV H 1 08:01:55.00 476.749 00:00:06 Yes
19 Lonestar Loft - TX 0345-AU20-DENT RC H 1 08:01:55.00 476.749 00:00:06 Yes
21 Credeur Family Loft - LA 0921-AU20-CFL BB H 1 08:01:55.70 476.599 00:00:06 Yes
22 Wareagle Loft - AL 0636-AU20-WEL SIL 0 1 08:01:56.10 476.513 00:00:07 Yes
23 Sly's Loft - AL 20497-AU20-MOBM BC H 1 08:01:56.60 476.405 00:00:07 Yes
24 Nesneb Racing Loft - AL 20065-AU20-NESN BB C 2 08:01:57.10 476.298 00:00:08 Yes
24 English Syndicate - UK 14631-GB20-E DC C 1 08:01:57.10 476.298 00:00:08 Yes
26 Flying D Loft - TX 0520-AU20-FLYD Foys 29785 Tex 3404 BC H 3 08:01:57.60 476.190 00:00:08 Yes
27 Ledet-Gutrz - LA 20428-AU20-LEDT BB C 2 08:01:58.00 476.105 00:00:08 Yes
28 Hynes - LA 20459-AU20-MET BBWF C 2 08:01:58.50 475.997 00:00:09 Yes
29 Randy & Joe - TX 0085-AU20-NBC BB H 1 08:01:59.00 475.890 00:00:09 Yes
29 Peach Classic - GA 72555-IF20-E BB C 1 08:01:59.00 475.890 00:00:09 Yes
31 Stephen Garansi Jr Loft - AL 0074-AU20-GARA BB C 1 08:01:59.60 475.761 00:00:10 Yes
32 Hi-Cal Connection - CA 0866-AU20-HICA BB C 1 08:02:00.60 475.547 00:00:11 Yes
33 Ledet-Gutrz - LA 20185-AU20-LEDT BB H 3 08:02:01.00 475.462 00:00:11 Yes
34 John Coker - TX 20057-AU20-MET BB H 1 08:02:01.80 475.290 00:00:12 Yes
35 English Syndicate - UK 20263-AU20-MET BB 1 2 08:02:02.30 475.183 00:00:13 Yes
36 Lonestar Loft - TX 0239-AU20-DENT BC C 2 08:02:02.70 475.098 00:00:13 Yes
36 Dale Alexander - LA 20478-AU20-MET DCWF C 1 08:02:02.70 475.098 00:00:13 Yes
38 B & J Loft - FL 2039-AU20-AUCO BCWF H 1 08:02:03.20 474.991 00:00:14 Yes
38 Nesneb Racing Loft - AL 20014-AU20-NESN BB H 3 08:02:03.20 474.991 00:00:14 Yes
40 Baudy Loft - LA 20279-AU20-MET BC C 1 08:02:03.60 474.906 00:00:14 Yes
41 Pidg-Inn - AL 6462-AU20-FOYS 007 BBWF H 2 08:02:03.70 474.884 00:00:14 Yes
42 B & J Loft - FL 20082-AU20-MOBM BC H 2 08:02:04.10 474.799 00:00:15 Yes
42 New Orleans Boys 2 - LA 20504-AU20-MET RC H 2 08:02:04.10 474.799 00:00:15 Yes
44 Hynes - LA 20469-AU20-MET BB H 3 08:02:04.70 474.671 00:00:15 Yes
45 Hi-Cal Connection - CA 0868-AU20-HICA BC C 2 08:02:05.10 474.585 00:00:16 Yes
46 C F L - LA 0988-AU20-CFL BC C 1 08:02:05.50 474.500 00:00:16 Yes
47 Hynes - LA 20466-AU20-MET BB H 4 08:02:06.20 474.351 00:00:17 Yes
47 Roberts Family Loft - TX 3512-AU20-FOYS WHIT C 2 08:02:06.20 474.351 00:00:17 Yes
47 Kelley & Buckner - TX 0048-AU20-DENT BB C 1 08:02:06.20 474.351 00:00:17 Yes
50 Texas Holiday Derby - TX 0769-AU20-NSL "668 X 15180" BB C 1 08:02:06.30 474.330 00:00:17 Yes
51 Johnson / Perron - LA 0571-AU20-LAF BC H 1 08:02:06.70 474.244 00:00:17 Yes
52 Radd - OK 4275-AU20-ARPU 2283/2528 He RCSP C 3 08:02:06.80 474.223 00:00:17 Yes
53 Dyer - AL 3551-AU20-VITA BB C 1 08:02:07.20 474.138 00:00:18 Yes
54 Mike's Loft - MS 6781-AU20-SMRP BC H 2 08:02:07.60 474.053 00:00:18 Yes
55 Kelley & Buckner - TX 0042-AU20-DENT GRZ C 2 08:02:08.00 473.968 00:00:18 Yes
56 Baudy Loft - LA 20040-AU20-MET BC H 2 08:02:08.40 473.883 00:00:19 Yes
56 Texas Holiday Derby - TX 0754-AU20-NSL "13108 X 2940414" SLAT C 2 08:02:08.40 473.883 00:00:19 Yes
58 Flying M Loft - AL 20106-AU20-MOBM BB C 2 08:02:09.10 473.734 00:00:20 Yes
58 Randolph Racers - AL 20515-AU20-MOBM Jersey Cash BC H 1 08:02:09.10 473.734 00:00:20 Yes
58 Randy & Joe - TX 0512-AU20-NBC BBWF H 2 08:02:09.10 473.734 00:00:20 Yes
61 Roberts Family Loft - TX 0201-AU20-DOUB BBWF C 3 08:02:09.60 473.628 00:00:20 Yes
62 Johnson / Perron - LA 0568-AU20-LAF BB H 2 08:02:10.00 473.543 00:00:20 Yes
62 Randy & Joe - TX 0077-AU20-NBC RC H 3 08:02:10.00 473.543 00:00:20 Yes
64 Aucoin Loft - LA 20289-AU20-MET BC H 1 08:02:10.10 473.521 00:00:21 Yes
65 Randolph Racers - AL 20507-AU20-MOBM DELL MASTER BC 0 2 08:02:10.50 473.436 00:00:21 Yes
65 Aucoin Loft - LA 2029-AU20-AUCO BC C 2 08:02:10.50 473.436 00:00:21 Yes
67 Kelley & Buckner - TX 0061-AU20-DENT GRZ C 3 08:02:10.60 473.415 00:00:21 Yes
68 B & J Loft - FL 0031-AU20-CRP GRZ H 3 08:02:11.00 473.330 00:00:22 Yes
69 Hi-Cal Connection - CA 0848-AU20-HICA BB H 3 08:02:11.10 473.309 00:00:22 Yes
69 Dyer - AL 3552-AU20-VITA BC C 2 08:02:11.10 473.309 00:00:22 Yes
71 Wareagle Loft - AL 0635-AU20-WEL RC 0 2 08:02:11.60 473.203 00:00:22 Yes
71 Nesneb Racing Loft - AL 20070-AU20-NESN BC C 4 08:02:11.60 473.203 00:00:22 Yes
71 Stephen Garansi Jr Loft - AL 0075-AU20-GARA BB H 2 08:02:11.60 473.203 00:00:22 Yes
74 Ruston Racers - LA 2006-AU20-NLA BB 1 2 08:02:12.20 473.076 00:00:23 Yes
74 Bionic Loft - LA 0043-AU20-CAJU BC C 1 08:02:12.20 473.076 00:00:23 Yes
76 English Syndicate - UK 14634-GB20-E BB H 3 08:02:12.90 472.928 00:00:23 Yes
77 Kelley & Buckner - TX 0059-AU20-DENT DCWF H 4 08:02:13.40 472.822 00:00:24 Yes
77 Hynes - LA 20462-AU20-MET BB C 5 08:02:13.40 472.822 00:00:24 Yes
79 Pidg-Inn - AL 6460-AU20-FOYS CLYDE BBWF H 3 08:02:13.80 472.737 00:00:24 Yes
80 Dale Alexander - LA 20488-AU20-MET SLV C 2 08:02:14.20 472.652 00:00:25 Yes
81 Roberts Family Loft - TX 0202-AU20-DOUB BB H 4 08:02:14.30 472.631 00:00:25 Yes
82 Ron Talbot /Jimmy Fernandez - LA 3453-AU20-BAYO BC C 2 08:02:14.70 472.547 00:00:25 Yes
82 Randolph Racers - AL 20533-AU20-MOBM Orient express DCWF C 3 08:02:14.70 472.547 00:00:25 Yes
84 Ed Minvielle - LA 20314-AU20-A BB C 1 08:02:14.80 472.526 00:00:25 Yes
85 R & M Lofts - TX 9130-AU20-AA BB C 3 08:02:15.20 472.441 00:00:26 Yes
86 Radd - OK 4265-AU20-ARPU 139/1743 CS BB C 4 08:02:15.60 472.356 00:00:26 Yes
87 Ledet-Gutrz - LA 20415-AU20-LEDT BB C 4 08:02:16.10 472.251 00:00:27 Yes
88 Credeur Family Loft - LA 0912-AU20-CFL BC H 2 08:02:16.50 472.166 00:00:27 Yes
88 Necesito Loft - VA 1404-IF20-SEA BB C 1 08:02:16.50 472.166 00:00:27 Yes
90 Kelley & Buckner - TX 0041-AU20-DENT BB C 5 08:02:16.60 472.145 00:00:27 Yes
90 Flying M Loft - AL 20579-AU20-MOBM BB C 3 08:02:16.60 472.145 00:00:27 Yes
90 Ruston Racers - LA 2004-AU20-NLA BC C 3 08:02:16.60 472.145 00:00:27 Yes
93 R & M Lofts - TX 9175-AU20-AA BB C 4 08:02:17.10 472.040 00:00:28 Yes
93 Johnson / Perron - LA 0562-AU20-LAF BC C 3 08:02:17.10 472.040 00:00:28 Yes
95 Two Cousins - LA 3625-AU20-BAYO BB H 2 08:02:17.60 471.934 00:00:28 Yes
95 Kelley & Buckner - TX 0045-AU20-DENT BC C 6 08:02:17.60 471.934 00:00:28 Yes
97 B & J Loft - FL 20076-AU20-MOBM BB H 4 08:02:18.20 471.808 00:00:29 Yes
97 Freebyrd Loft - LA 17981-AU20-AA Beauxdacious BB 0 1 08:02:18.20 471.808 00:00:29 Yes
99 Sly's Loft - AL 20491-AU20-MOBM BC H 2 08:02:18.70 471.702 00:00:29 Yes
99 Transilvania Loft - NV 0287-AU20-CIMP BC H 1 08:02:18.70 471.702 00:00:29 Yes

There are 160 bird records

Note: These Race Results are unofficial and subject to change until verified by the Race Committee and declared final.